Pagrindinis puslapis
METAR-TAF:

METAR-TAF

Oro uostai :

Tahua, Nigeris

platuma: 14-54N, ilguma: 005-15E, Aukštis: 386 m

Dabartinis oras

Ataskaita buvo paskelbta 5 valandos ir 44 minutes, ne 18:00 UTC
Vėjas 2 kt iš Vakarų/Šiaurės Vakarų
Temperatūra 30°C
Drėgmė 43%
Slėgis 1009 hPa
Matomumas 10 km arba daugiau
Mažai debesys ne aukštis 3000 ft

METAR: DRRT 241800Z 30002KT 9999 FEW030 30/16 Q1009

Laikas: 00:44 (23:44 UTC)


TAF: trūkstamas

Orai ataskaitas ir orų prognozės (METAR, TAF).

turimą stotys yra geltonos ir raudonos taškus žemėlapyje.

Perkelti pele per norėdami pamatyti stoties vardą.

Tada spustelėkite, norėdami matyti oro stebėjimo ir prognozės.

Norėdami pakeisti žemėlapį: spustelėkite ant žalios mygtukų su juodo kryžiaus žemyn,; žalią mygtuką su brūkšneliu, jei norite nutolinti; arba žalių rodyklių gretimoms žemėlapius.


METAR-TAF: